sensor_id;sensor_type;location;lat;lon;timestamp;P1;durP1;ratioP1;P2;durP2;ratioP2
14030;SDS011;7090;49.436;8.490;2023-07-28T00:02:24;12.45;;;3.97;;
14030;SDS011;7090;49.436;8.490;2023-07-28T00:04:49;3.22;;;3.13;;
14030;SDS011;7090;49.436;8.490;2023-07-28T00:07:15;3.20;;;3.10;;
14030;SDS011;7090;49.436;8.490;2023-07-28T00:09:40;3.33;;;3.22;;
14030;SDS011;7090;49.436;8.490;2023-07-28T00:12:06;3.30;;;3.20;;
14030;SDS011;7090;49.436;8.490;2023-07-28T00:14:32;3.40;;;3.30;;
14030;SDS011;7090;49.436;8.490;2023-07-28T00:16:57;3.78;;;3.58;;
14030;SDS011;7090;49.436;8.490;2023-07-28T00:19:23;3.00;;;2.90;;
14030;SDS011;7090;49.436;8.490;2023-07-28T00:21:49;3.70;;;3.50;;
14030;SDS011;7090;49.436;8.490;2023-07-28T00:24:15;2.95;;;2.85;;
14030;SDS011;7090;49.436;8.490;2023-07-28T00:26:41;2.83;;;2.72;;
14030;SDS011;7090;49.436;8.490;2023-07-28T00:29:06;2.80;;;2.70;;
14030;SDS011;7090;49.436;8.490;2023-07-28T00:31:32;3.30;;;3.20;;
14030;SDS011;7090;49.436;8.490;2023-07-28T00:33:58;4.18;;;3.67;;
14030;SDS011;7090;49.436;8.490;2023-07-28T00:36:24;2.95;;;2.80;;
14030;SDS011;7090;49.436;8.490;2023-07-28T00:38:50;2.50;;;2.40;;
14030;SDS011;7090;49.436;8.490;2023-07-28T00:41:15;3.97;;;3.15;;
14030;SDS011;7090;49.436;8.490;2023-07-28T00:43:41;3.05;;;2.95;;
14030;SDS011;7090;49.436;8.490;2023-07-28T00:46:06;2.30;;;2.25;;
14030;SDS011;7090;49.436;8.490;2023-07-28T00:48:34;2.05;;;2.05;;
14030;SDS011;7090;49.436;8.490;2023-07-28T00:51:00;2.13;;;2.13;;
14030;SDS011;7090;49.436;8.490;2023-07-28T00:53:25;3.83;;;3.25;;
14030;SDS011;7090;49.436;8.490;2023-07-28T00:55:51;3.50;;;3.35;;
14030;SDS011;7090;49.436;8.490;2023-07-28T00:58:17;2.50;;;2.40;;
14030;SDS011;7090;49.436;8.490;2023-07-28T01:00:43;3.30;;;3.00;;
14030;SDS011;7090;49.436;8.490;2023-07-28T01:03:08;2.60;;;2.50;;
14030;SDS011;7090;49.436;8.490;2023-07-28T01:08:48;2.00;;;2.00;;
14030;SDS011;7090;49.436;8.490;2023-07-28T01:11:21;2.78;;;2.67;;
14030;SDS011;7090;49.436;8.490;2023-07-28T01:13:46;3.03;;;2.92;;
14030;SDS011;7090;49.436;8.490;2023-07-28T01:16:12;2.90;;;2.80;;
14030;SDS011;7090;49.436;8.490;2023-07-28T01:18:38;2.63;;;2.53;;
14030;SDS011;7090;49.436;8.490;2023-07-28T01:21:05;3.50;;;3.40;;
14030;SDS011;7090;49.436;8.490;2023-07-28T01:26:08;2.90;;;2.70;;
14030;SDS011;7090;49.436;8.490;2023-07-28T01:28:35;2.85;;;2.75;;
14030;SDS011;7090;49.436;8.490;2023-07-28T01:31:05;2.40;;;2.35;;
14030;SDS011;7090;49.436;8.490;2023-07-28T01:33:31;2.42;;;2.33;;
14030;SDS011;7090;49.436;8.490;2023-07-28T01:35:57;2.40;;;2.30;;
14030;SDS011;7090;49.436;8.490;2023-07-28T01:38:25;3.85;;;3.65;;
14030;SDS011;7090;49.436;8.490;2023-07-28T01:40:52;4.28;;;3.38;;
14030;SDS011;7090;49.436;8.490;2023-07-28T01:43:17;3.17;;;3.08;;
14030;SDS011;7090;49.436;8.490;2023-07-28T01:45:43;3.92;;;3.72;;
14030;SDS011;7090;49.436;8.490;2023-07-28T01:48:08;3.28;;;3.17;;
14030;SDS011;7090;49.436;8.490;2023-07-28T01:50:37;2.80;;;2.70;;
14030;SDS011;7090;49.436;8.490;2023-07-28T01:53:06;2.58;;;2.47;;
14030;SDS011;7090;49.436;8.490;2023-07-28T01:55:32;3.38;;;3.28;;
14030;SDS011;7090;49.436;8.490;2023-07-28T01:57:59;3.97;;;3.78;;
14030;SDS011;7090;49.436;8.490;2023-07-28T02:00:26;3.25;;;3.15;;
14030;SDS011;7090;49.436;8.490;2023-07-28T02:02:52;4.47;;;4.00;;
14030;SDS011;7090;49.436;8.490;2023-07-28T02:05:18;4.10;;;3.90;;
14030;SDS011;7090;49.436;8.490;2023-07-28T02:07:44;4.25;;;4.05;;
14030;SDS011;7090;49.436;8.490;2023-07-28T02:10:10;4.43;;;4.22;;
14030;SDS011;7090;49.436;8.490;2023-07-28T02:12:36;4.65;;;4.45;;
14030;SDS011;7090;49.436;8.490;2023-07-28T02:15:02;3.75;;;3.65;;
14030;SDS011;7090;49.436;8.490;2023-07-28T02:17:28;4.93;;;4.65;;
14030;SDS011;7090;49.436;8.490;2023-07-28T02:19:54;5.65;;;5.45;;
14030;SDS011;7090;49.436;8.490;2023-07-28T02:22:20;5.72;;;5.53;;
14030;SDS011;7090;49.436;8.490;2023-07-28T02:24:45;5.82;;;5.63;;
14030;SDS011;7090;49.436;8.490;2023-07-28T02:27:11;7.30;;;7.00;;
14030;SDS011;7090;49.436;8.490;2023-07-28T02:29:36;8.13;;;7.82;;
14030;SDS011;7090;49.436;8.490;2023-07-28T02:32:02;8.57;;;8.18;;
14030;SDS011;7090;49.436;8.490;2023-07-28T02:34:28;8.60;;;8.20;;
14030;SDS011;7090;49.436;8.490;2023-07-28T02:36:53;8.95;;;8.55;;
14030;SDS011;7090;49.436;8.490;2023-07-28T02:39:19;8.10;;;7.80;;
14030;SDS011;7090;49.436;8.490;2023-07-28T02:41:45;10.65;;;9.73;;
14030;SDS011;7090;49.436;8.490;2023-07-28T02:44:11;9.15;;;8.75;;
14030;SDS011;7090;49.436;8.490;2023-07-28T02:46:36;8.35;;;8.05;;
14030;SDS011;7090;49.436;8.490;2023-07-28T02:49:02;8.48;;;8.18;;
14030;SDS011;7090;49.436;8.490;2023-07-28T02:51:29;8.27;;;7.97;;
14030;SDS011;7090;49.436;8.490;2023-07-28T02:53:59;8.60;;;8.20;;
14030;SDS011;7090;49.436;8.490;2023-07-28T02:56:25;7.95;;;7.65;;
14030;SDS011;7090;49.436;8.490;2023-07-28T02:58:50;7.57;;;7.28;;
14030;SDS011;7090;49.436;8.490;2023-07-28T03:01:16;8.70;;;8.25;;
14030;SDS011;7090;49.436;8.490;2023-07-28T03:03:42;8.18;;;7.78;;
14030;SDS011;7090;49.436;8.490;2023-07-28T03:06:08;8.82;;;8.30;;
14030;SDS011;7090;49.436;8.490;2023-07-28T03:08:33;7.72;;;7.43;;
14030;SDS011;7090;49.436;8.490;2023-07-28T03:10:59;6.90;;;6.70;;
14030;SDS011;7090;49.436;8.490;2023-07-28T03:13:27;6.93;;;6.63;;
14030;SDS011;7090;49.436;8.490;2023-07-28T03:15:53;6.00;;;5.80;;
14030;SDS011;7090;49.436;8.490;2023-07-28T03:18:19;6.32;;;6.13;;
14030;SDS011;7090;49.436;8.490;2023-07-28T03:20:45;6.50;;;6.22;;
14030;SDS011;7090;49.436;8.490;2023-07-28T03:23:11;5.60;;;5.40;;
14030;SDS011;7090;49.436;8.490;2023-07-28T03:25:37;6.00;;;5.70;;
14030;SDS011;7090;49.436;8.490;2023-07-28T03:28:02;5.60;;;5.40;;
14030;SDS011;7090;49.436;8.490;2023-07-28T03:30:28;4.70;;;4.60;;
14030;SDS011;7090;49.436;8.490;2023-07-28T03:32:53;5.40;;;5.20;;
14030;SDS011;7090;49.436;8.490;2023-07-28T03:35:19;4.80;;;4.70;;
14030;SDS011;7090;49.436;8.490;2023-07-28T03:37:45;5.75;;;5.55;;
14030;SDS011;7090;49.436;8.490;2023-07-28T03:40:10;6.25;;;5.95;;
14030;SDS011;7090;49.436;8.490;2023-07-28T03:42:36;5.30;;;5.10;;
14030;SDS011;7090;49.436;8.490;2023-07-28T03:45:01;5.80;;;5.60;;
14030;SDS011;7090;49.436;8.490;2023-07-28T03:47:28;5.70;;;5.40;;
14030;SDS011;7090;49.436;8.490;2023-07-28T03:49:53;5.50;;;5.30;;
14030;SDS011;7090;49.436;8.490;2023-07-28T03:52:19;5.53;;;5.22;;
14030;SDS011;7090;49.436;8.490;2023-07-28T03:54:44;5.18;;;4.97;;
14030;SDS011;7090;49.436;8.490;2023-07-28T03:57:10;5.28;;;4.97;;
14030;SDS011;7090;49.436;8.490;2023-07-28T03:59:36;4.93;;;4.72;;
14030;SDS011;7090;49.436;8.490;2023-07-28T04:02:01;4.30;;;4.20;;
14030;SDS011;7090;49.436;8.490;2023-07-28T04:04:27;4.57;;;4.43;;
14030;SDS011;7090;49.436;8.490;2023-07-28T04:06:53;4.40;;;4.30;;
14030;SDS011;7090;49.436;8.490;2023-07-28T04:09:18;4.47;;;4.38;;
14030;SDS011;7090;49.436;8.490;2023-07-28T04:11:45;4.82;;;4.57;;
14030;SDS011;7090;49.436;8.490;2023-07-28T04:14:11;4.75;;;4.55;;
14030;SDS011;7090;49.436;8.490;2023-07-28T04:16:37;4.72;;;4.53;;
14030;SDS011;7090;49.436;8.490;2023-07-28T04:19:03;13.20;;;4.75;;
14030;SDS011;7090;49.436;8.490;2023-07-28T04:21:28;4.78;;;4.53;;
14030;SDS011;7090;49.436;8.490;2023-07-28T04:23:54;4.50;;;4.30;;
14030;SDS011;7090;49.436;8.490;2023-07-28T04:26:20;3.80;;;3.70;;
14030;SDS011;7090;49.436;8.490;2023-07-28T04:28:46;4.28;;;4.07;;
14030;SDS011;7090;49.436;8.490;2023-07-28T04:31:12;3.95;;;3.85;;
14030;SDS011;7090;49.436;8.490;2023-07-28T04:33:40;4.28;;;4.05;;
14030;SDS011;7090;49.436;8.490;2023-07-28T04:36:06;4.43;;;4.22;;
14030;SDS011;7090;49.436;8.490;2023-07-28T04:38:32;4.10;;;4.00;;
14030;SDS011;7090;49.436;8.490;2023-07-28T04:40:58;4.22;;;4.03;;
14030;SDS011;7090;49.436;8.490;2023-07-28T04:43:23;3.65;;;3.55;;
14030;SDS011;7090;49.436;8.490;2023-07-28T04:45:49;3.88;;;3.72;;
14030;SDS011;7090;49.436;8.490;2023-07-28T04:48:14;3.55;;;3.45;;
14030;SDS011;7090;49.436;8.490;2023-07-28T04:50:40;3.85;;;3.65;;
14030;SDS011;7090;49.436;8.490;2023-07-28T04:53:05;3.55;;;3.40;;
14030;SDS011;7090;49.436;8.490;2023-07-28T04:55:31;4.10;;;3.80;;
14030;SDS011;7090;49.436;8.490;2023-07-28T04:57:56;3.50;;;3.40;;
14030;SDS011;7090;49.436;8.490;2023-07-28T05:00:22;3.50;;;3.40;;
14030;SDS011;7090;49.436;8.490;2023-07-28T05:02:48;3.53;;;3.42;;
14030;SDS011;7090;49.436;8.490;2023-07-28T05:05:14;4.50;;;4.20;;
14030;SDS011;7090;49.436;8.490;2023-07-28T05:07:40;3.00;;;2.90;;
14030;SDS011;7090;49.436;8.490;2023-07-28T05:10:05;3.47;;;3.38;;
14030;SDS011;7090;49.436;8.490;2023-07-28T05:12:31;4.05;;;3.85;;
14030;SDS011;7090;49.436;8.490;2023-07-28T05:14:57;3.30;;;3.20;;
14030;SDS011;7090;49.436;8.490;2023-07-28T05:17:23;3.40;;;3.30;;
14030;SDS011;7090;49.436;8.490;2023-07-28T05:19:49;4.43;;;4.22;;
14030;SDS011;7090;49.436;8.490;2023-07-28T05:22:15;3.88;;;3.67;;
14030;SDS011;7090;49.436;8.490;2023-07-28T05:24:41;3.58;;;3.38;;
14030;SDS011;7090;49.436;8.490;2023-07-28T05:27:08;2.90;;;2.80;;
14030;SDS011;7090;49.436;8.490;2023-07-28T05:29:34;3.50;;;3.40;;
14030;SDS011;7090;49.436;8.490;2023-07-28T05:32:00;3.85;;;3.72;;
14030;SDS011;7090;49.436;8.490;2023-07-28T05:34:25;3.47;;;3.28;;
14030;SDS011;7090;49.436;8.490;2023-07-28T05:36:51;3.70;;;3.50;;
14030;SDS011;7090;49.436;8.490;2023-07-28T05:39:16;3.20;;;3.10;;
14030;SDS011;7090;49.436;8.490;2023-07-28T05:41:42;2.67;;;2.58;;
14030;SDS011;7090;49.436;8.490;2023-07-28T05:44:08;2.60;;;2.50;;
14030;SDS011;7090;49.436;8.490;2023-07-28T05:46:33;2.85;;;2.75;;
14030;SDS011;7090;49.436;8.490;2023-07-28T05:48:59;2.20;;;2.20;;
14030;SDS011;7090;49.436;8.490;2023-07-28T05:51:25;2.45;;;2.35;;
14030;SDS011;7090;49.436;8.490;2023-07-28T05:53:50;2.55;;;2.45;;
14030;SDS011;7090;49.436;8.490;2023-07-28T05:56:16;2.95;;;2.75;;
14030;SDS011;7090;49.436;8.490;2023-07-28T05:58:43;1.85;;;1.85;;
14030;SDS011;7090;49.436;8.490;2023-07-28T06:01:09;2.15;;;2.08;;
14030;SDS011;7090;49.436;8.490;2023-07-28T06:03:34;3.08;;;2.88;;
14030;SDS011;7090;49.436;8.490;2023-07-28T06:06:00;10.25;;;2.72;;
14030;SDS011;7090;49.436;8.490;2023-07-28T06:08:26;2.50;;;2.40;;
14030;SDS011;7090;49.436;8.490;2023-07-28T06:10:52;4.72;;;2.50;;
14030;SDS011;7090;49.436;8.490;2023-07-28T06:13:17;1.90;;;1.80;;
14030;SDS011;7090;49.436;8.490;2023-07-28T06:15:43;2.05;;;1.95;;
14030;SDS011;7090;49.436;8.490;2023-07-28T06:18:08;1.90;;;1.80;;
14030;SDS011;7090;49.436;8.490;2023-07-28T06:20:34;1.77;;;1.67;;
14030;SDS011;7090;49.436;8.490;2023-07-28T06:23:00;4.00;;;1.90;;
14030;SDS011;7090;49.436;8.490;2023-07-28T06:25:26;1.77;;;1.67;;
14030;SDS011;7090;49.436;8.490;2023-07-28T06:27:51;1.20;;;1.20;;
14030;SDS011;7090;49.436;8.490;2023-07-28T06:30:17;2.20;;;2.08;;
14030;SDS011;7090;49.436;8.490;2023-07-28T06:32:43;1.60;;;1.60;;
14030;SDS011;7090;49.436;8.490;2023-07-28T06:35:08;2.65;;;2.15;;
14030;SDS011;7090;49.436;8.490;2023-07-28T06:37:34;2.70;;;2.50;;
14030;SDS011;7090;49.436;8.490;2023-07-28T06:40:02;1.73;;;1.73;;
14030;SDS011;7090;49.436;8.490;2023-07-28T06:42:29;2.30;;;2.20;;
14030;SDS011;7090;49.436;8.490;2023-07-28T06:44:54;2.20;;;2.10;;
14030;SDS011;7090;49.436;8.490;2023-07-28T06:47:21;2.30;;;2.20;;
14030;SDS011;7090;49.436;8.490;2023-07-28T06:49:46;2.45;;;2.30;;
14030;SDS011;7090;49.436;8.490;2023-07-28T06:52:12;2.25;;;2.15;;
14030;SDS011;7090;49.436;8.490;2023-07-28T06:54:38;3.13;;;2.90;;
14030;SDS011;7090;49.436;8.490;2023-07-28T06:57:04;2.35;;;2.25;;
14030;SDS011;7090;49.436;8.490;2023-07-28T06:59:31;2.28;;;2.17;;
14030;SDS011;7090;49.436;8.490;2023-07-28T07:01:57;2.28;;;2.17;;
14030;SDS011;7090;49.436;8.490;2023-07-28T07:04:22;2.33;;;2.20;;
14030;SDS011;7090;49.436;8.490;2023-07-28T07:06:48;2.10;;;2.00;;
14030;SDS011;7090;49.436;8.490;2023-07-28T07:09:13;2.10;;;2.00;;
14030;SDS011;7090;49.436;8.490;2023-07-28T07:11:39;2.08;;;1.98;;
14030;SDS011;7090;49.436;8.490;2023-07-28T07:14:05;2.13;;;2.03;;
14030;SDS011;7090;49.436;8.490;2023-07-28T07:16:31;2.67;;;2.47;;
14030;SDS011;7090;49.436;8.490;2023-07-28T07:18:57;2.72;;;2.55;;
14030;SDS011;7090;49.436;8.490;2023-07-28T07:21:23;2.30;;;2.20;;
14030;SDS011;7090;49.436;8.490;2023-07-28T07:23:48;2.30;;;2.20;;
14030;SDS011;7090;49.436;8.490;2023-07-28T07:26:14;2.53;;;2.42;;
14030;SDS011;7090;49.436;8.490;2023-07-28T07:28:39;2.70;;;2.60;;
14030;SDS011;7090;49.436;8.490;2023-07-28T07:31:11;2.30;;;2.20;;
14030;SDS011;7090;49.436;8.490;2023-07-28T07:33:40;1.90;;;1.90;;
14030;SDS011;7090;49.436;8.490;2023-07-28T07:36:16;2.10;;;2.10;;
14030;SDS011;7090;49.436;8.490;2023-07-28T07:38:43;2.33;;;2.22;;
14030;SDS011;7090;49.436;8.490;2023-07-28T07:41:12;2.38;;;2.28;;
14030;SDS011;7090;49.436;8.490;2023-07-28T07:43:41;2.03;;;2.03;;
14030;SDS011;7090;49.436;8.490;2023-07-28T07:46:06;2.00;;;2.00;;
14030;SDS011;7090;49.436;8.490;2023-07-28T07:48:32;2.60;;;2.40;;
14030;SDS011;7090;49.436;8.490;2023-07-28T07:50:58;2.67;;;2.58;;
14030;SDS011;7090;49.436;8.490;2023-07-28T07:53:23;2.78;;;2.67;;
14030;SDS011;7090;49.436;8.490;2023-07-28T07:55:49;2.78;;;2.58;;
14030;SDS011;7090;49.436;8.490;2023-07-28T07:58:15;2.50;;;2.40;;
14030;SDS011;7090;49.436;8.490;2023-07-28T08:00:40;2.80;;;2.70;;
14030;SDS011;7090;49.436;8.490;2023-07-28T08:03:06;2.80;;;2.70;;
14030;SDS011;7090;49.436;8.490;2023-07-28T08:05:31;3.35;;;3.05;;
14030;SDS011;7090;49.436;8.490;2023-07-28T08:07:57;3.00;;;2.90;;
14030;SDS011;7090;49.436;8.490;2023-07-28T08:10:23;3.10;;;3.00;;
14030;SDS011;7090;49.436;8.490;2023-07-28T08:12:49;5.70;;;3.28;;
14030;SDS011;7090;49.436;8.490;2023-07-28T08:15:17;3.20;;;3.10;;
14030;SDS011;7090;49.436;8.490;2023-07-28T08:17:43;2.92;;;2.83;;
14030;SDS011;7090;49.436;8.490;2023-07-28T08:20:09;3.60;;;3.30;;
14030;SDS011;7090;49.436;8.490;2023-07-28T08:22:35;3.67;;;3.47;;
14030;SDS011;7090;49.436;8.490;2023-07-28T08:25:01;5.18;;;4.10;;
14030;SDS011;7090;49.436;8.490;2023-07-28T08:27:26;3.42;;;3.30;;
14030;SDS011;7090;49.436;8.490;2023-07-28T08:29:52;4.30;;;4.10;;
14030;SDS011;7090;49.436;8.490;2023-07-28T08:32:17;4.28;;;4.07;;
14030;SDS011;7090;49.436;8.490;2023-07-28T08:34:43;5.10;;;4.90;;
14030;SDS011;7090;49.436;8.490;2023-07-28T08:37:08;4.80;;;4.60;;
14030;SDS011;7090;49.436;8.490;2023-07-28T08:39:34;5.20;;;4.90;;
14030;SDS011;7090;49.436;8.490;2023-07-28T08:42:00;6.00;;;5.70;;
14030;SDS011;7090;49.436;8.490;2023-07-28T08:44:30;5.30;;;5.10;;
14030;SDS011;7090;49.436;8.490;2023-07-28T08:46:58;6.15;;;5.85;;
14030;SDS011;7090;49.436;8.490;2023-07-28T08:49:25;5.70;;;5.50;;
14030;SDS011;7090;49.436;8.490;2023-07-28T08:51:51;5.78;;;5.57;;
14030;SDS011;7090;49.436;8.490;2023-07-28T08:54:22;6.05;;;5.75;;
14030;SDS011;7090;49.436;8.490;2023-07-28T08:56:47;5.90;;;5.70;;
14030;SDS011;7090;49.436;8.490;2023-07-28T08:59:20;6.00;;;5.80;;
14030;SDS011;7090;49.436;8.490;2023-07-28T09:01:51;6.60;;;6.20;;
14030;SDS011;7090;49.436;8.490;2023-07-28T09:04:23;6.50;;;6.00;;
14030;SDS011;7090;49.436;8.490;2023-07-28T09:06:49;5.97;;;5.68;;
14030;SDS011;7090;49.436;8.490;2023-07-28T09:09:15;5.90;;;5.60;;
14030;SDS011;7090;49.436;8.490;2023-07-28T09:14:18;6.15;;;5.85;;
14030;SDS011;7090;49.436;8.490;2023-07-28T09:16:45;5.82;;;5.63;;
14030;SDS011;7090;49.436;8.490;2023-07-28T09:19:11;7.00;;;6.60;;
14030;SDS011;7090;49.436;8.490;2023-07-28T09:21:37;6.85;;;6.55;;
14030;SDS011;7090;49.436;8.490;2023-07-28T09:24:04;5.60;;;5.40;;
14030;SDS011;7090;49.436;8.490;2023-07-28T09:26:40;6.40;;;6.10;;
14030;SDS011;7090;49.436;8.490;2023-07-28T09:29:11;6.40;;;6.10;;
14030;SDS011;7090;49.436;8.490;2023-07-28T09:31:38;6.50;;;6.20;;
14030;SDS011;7090;49.436;8.490;2023-07-28T09:34:06;6.28;;;6.00;;
14030;SDS011;7090;49.436;8.490;2023-07-28T09:36:33;6.20;;;5.97;;
14030;SDS011;7090;49.436;8.490;2023-07-28T09:38:59;5.95;;;5.75;;
14030;SDS011;7090;49.436;8.490;2023-07-28T09:41:27;6.13;;;5.90;;
14030;SDS011;7090;49.436;8.490;2023-07-28T09:43:54;6.22;;;5.90;;
14030;SDS011;7090;49.436;8.490;2023-07-28T09:46:21;6.00;;;5.70;;
14030;SDS011;7090;49.436;8.490;2023-07-28T09:48:51;5.80;;;5.50;;
14030;SDS011;7090;49.436;8.490;2023-07-28T09:51:21;6.50;;;6.20;;
14030;SDS011;7090;49.436;8.490;2023-07-28T09:53:53;6.18;;;5.88;;
14030;SDS011;7090;49.436;8.490;2023-07-28T09:56:25;6.30;;;5.97;;
14030;SDS011;7090;49.436;8.490;2023-07-28T09:58:54;6.50;;;6.20;;
14030;SDS011;7090;49.436;8.490;2023-07-28T10:01:22;6.60;;;6.30;;
14030;SDS011;7090;49.436;8.490;2023-07-28T10:03:48;6.07;;;5.78;;
14030;SDS011;7090;49.436;8.490;2023-07-28T10:06:14;5.90;;;5.70;;
14030;SDS011;7090;49.436;8.490;2023-07-28T10:08:44;6.40;;;6.10;;
14030;SDS011;7090;49.436;8.490;2023-07-28T10:11:11;6.68;;;6.38;;
14030;SDS011;7090;49.436;8.490;2023-07-28T10:13:40;6.28;;;5.97;;
14030;SDS011;7090;49.436;8.490;2023-07-28T10:16:07;5.90;;;5.70;;
14030;SDS011;7090;49.436;8.490;2023-07-28T10:18:39;5.60;;;5.40;;
14030;SDS011;7090;49.436;8.490;2023-07-28T10:21:06;6.68;;;6.30;;
14030;SDS011;7090;49.436;8.490;2023-07-28T10:23:38;5.90;;;5.70;;
14030;SDS011;7090;49.436;8.490;2023-07-28T10:26:04;6.50;;;6.10;;
14030;SDS011;7090;49.436;8.490;2023-07-28T10:28:39;6.07;;;5.72;;
14030;SDS011;7090;49.436;8.490;2023-07-28T10:31:08;5.70;;;5.50;;
14030;SDS011;7090;49.436;8.490;2023-07-28T10:33:39;5.82;;;5.63;;
14030;SDS011;7090;49.436;8.490;2023-07-28T10:38:42;6.00;;;5.70;;
14030;SDS011;7090;49.436;8.490;2023-07-28T10:41:17;6.32;;;6.03;;
14030;SDS011;7090;49.436;8.490;2023-07-28T10:43:43;5.97;;;5.68;;
14030;SDS011;7090;49.436;8.490;2023-07-28T10:46:15;6.75;;;6.35;;
14030;SDS011;7090;49.436;8.490;2023-07-28T10:48:43;6.18;;;5.88;;
14030;SDS011;7090;49.436;8.490;2023-07-28T10:51:10;6.93;;;6.43;;
14030;SDS011;7090;49.436;8.490;2023-07-28T10:53:37;6.70;;;6.40;;
14030;SDS011;7090;49.436;8.490;2023-07-28T10:56:03;6.53;;;6.22;;
14030;SDS011;7090;49.436;8.490;2023-07-28T10:58:32;7.47;;;6.50;;
14030;SDS011;7090;49.436;8.490;2023-07-28T11:01:00;6.93;;;6.55;;
14030;SDS011;7090;49.436;8.490;2023-07-28T11:03:27;6.18;;;5.90;;
14030;SDS011;7090;49.436;8.490;2023-07-28T11:05:53;7.35;;;6.95;;
14030;SDS011;7090;49.436;8.490;2023-07-28T11:08:21;6.65;;;6.35;;
14030;SDS011;7090;49.436;8.490;2023-07-28T11:10:47;7.05;;;6.47;;
14030;SDS011;7090;49.436;8.490;2023-07-28T11:13:13;6.32;;;6.03;;
14030;SDS011;7090;49.436;8.490;2023-07-28T11:15:39;6.65;;;6.30;;
14030;SDS011;7090;49.436;8.490;2023-07-28T11:18:05;6.45;;;6.07;;
14030;SDS011;7090;49.436;8.490;2023-07-28T11:20:31;5.75;;;5.55;;
14030;SDS011;7090;49.436;8.490;2023-07-28T11:25:23;6.60;;;6.30;;
14030;SDS011;7090;49.436;8.490;2023-07-28T11:27:49;6.50;;;6.20;;
14030;SDS011;7090;49.436;8.490;2023-07-28T11:30:16;5.93;;;5.72;;
14030;SDS011;7090;49.436;8.490;2023-07-28T11:32:44;7.80;;;6.57;;
14030;SDS011;7090;49.436;8.490;2023-07-28T11:35:12;7.80;;;6.72;;
14030;SDS011;7090;49.436;8.490;2023-07-28T11:37:40;6.88;;;6.57;;
14030;SDS011;7090;49.436;8.490;2023-07-28T11:40:10;6.40;;;6.10;;
14030;SDS011;7090;49.436;8.490;2023-07-28T11:42:40;6.18;;;5.97;;
14030;SDS011;7090;49.436;8.490;2023-07-28T11:45:08;6.20;;;5.93;;
14030;SDS011;7090;49.436;8.490;2023-07-28T11:47:36;7.00;;;6.53;;
14030;SDS011;7090;49.436;8.490;2023-07-28T11:50:02;6.03;;;5.82;;
14030;SDS011;7090;49.436;8.490;2023-07-28T11:52:31;5.93;;;5.72;;
14030;SDS011;7090;49.436;8.490;2023-07-28T11:54:58;6.63;;;6.32;;
14030;SDS011;7090;49.436;8.490;2023-07-28T11:57:25;6.68;;;6.38;;
14030;SDS011;7090;49.436;8.490;2023-07-28T11:59:53;6.47;;;6.22;;
14030;SDS011;7090;49.436;8.490;2023-07-28T12:02:25;6.20;;;6.00;;
14030;SDS011;7090;49.436;8.490;2023-07-28T12:04:52;5.90;;;5.70;;
14030;SDS011;7090;49.436;8.490;2023-07-28T12:07:20;6.45;;;6.15;;
14030;SDS011;7090;49.436;8.490;2023-07-28T12:09:56;6.75;;;6.45;;
14030;SDS011;7090;49.436;8.490;2023-07-28T12:12:25;6.60;;;6.30;;
14030;SDS011;7090;49.436;8.490;2023-07-28T12:14:54;6.45;;;6.15;;
14030;SDS011;7090;49.436;8.490;2023-07-28T12:17:21;6.38;;;6.07;;
14030;SDS011;7090;49.436;8.490;2023-07-28T12:22:33;6.03;;;5.82;;
14030;SDS011;7090;49.436;8.490;2023-07-28T12:24:59;6.25;;;6.03;;
14030;SDS011;7090;49.436;8.490;2023-07-28T12:27:25;6.30;;;5.80;;
14030;SDS011;7090;49.436;8.490;2023-07-28T12:29:51;6.20;;;5.90;;
14030;SDS011;7090;49.436;8.490;2023-07-28T12:32:17;6.50;;;6.20;;
14030;SDS011;7090;49.436;8.490;2023-07-28T12:34:43;6.13;;;5.82;;
14030;SDS011;7090;49.436;8.490;2023-07-28T12:37:08;6.30;;;5.90;;
14030;SDS011;7090;49.436;8.490;2023-07-28T12:39:36;5.95;;;5.65;;
14030;SDS011;7090;49.436;8.490;2023-07-28T12:42:06;5.60;;;5.40;;
14030;SDS011;7090;49.436;8.490;2023-07-28T12:44:32;5.50;;;5.30;;
14030;SDS011;7090;49.436;8.490;2023-07-28T12:46:58;5.55;;;5.35;;
14030;SDS011;7090;49.436;8.490;2023-07-28T12:49:24;5.50;;;5.30;;
14030;SDS011;7090;49.436;8.490;2023-07-28T12:51:50;5.20;;;5.00;;
14030;SDS011;7090;49.436;8.490;2023-07-28T12:54:15;5.07;;;4.88;;
14030;SDS011;7090;49.436;8.490;2023-07-28T12:56:41;5.00;;;4.80;;
14030;SDS011;7090;49.436;8.490;2023-07-28T12:59:07;4.25;;;4.15;;
14030;SDS011;7090;49.436;8.490;2023-07-28T13:01:33;4.47;;;4.18;;
14030;SDS011;7090;49.436;8.490;2023-07-28T13:03:59;3.47;;;3.38;;
14030;SDS011;7090;49.436;8.490;2023-07-28T13:06:26;4.00;;;3.70;;
14030;SDS011;7090;49.436;8.490;2023-07-28T13:08:51;3.22;;;2.95;;
14030;SDS011;7090;49.436;8.490;2023-07-28T13:11:17;3.25;;;3.10;;
14030;SDS011;7090;49.436;8.490;2023-07-28T13:13:42;2.63;;;2.53;;
14030;SDS011;7090;49.436;8.490;2023-07-28T13:16:08;2.33;;;2.22;;
14030;SDS011;7090;49.436;8.490;2023-07-28T13:18:33;3.10;;;2.83;;
14030;SDS011;7090;49.436;8.490;2023-07-28T13:20:59;2.45;;;2.30;;
14030;SDS011;7090;49.436;8.490;2023-07-28T13:23:26;2.15;;;2.05;;
14030;SDS011;7090;49.436;8.490;2023-07-28T13:25:51;2.20;;;2.10;;
14030;SDS011;7090;49.436;8.490;2023-07-28T13:28:17;1.75;;;1.75;;
14030;SDS011;7090;49.436;8.490;2023-07-28T13:30:43;3.50;;;2.15;;
14030;SDS011;7090;49.436;8.490;2023-07-28T13:33:09;2.20;;;2.10;;
14030;SDS011;7090;49.436;8.490;2023-07-28T13:35:35;2.15;;;2.00;;
14030;SDS011;7090;49.436;8.490;2023-07-28T13:38:00;3.22;;;2.22;;
14030;SDS011;7090;49.436;8.490;2023-07-28T13:40:26;1.98;;;1.88;;
14030;SDS011;7090;49.436;8.490;2023-07-28T13:42:51;2.85;;;2.65;;
14030;SDS011;7090;49.436;8.490;2023-07-28T13:45:18;2.83;;;2.63;;
14030;SDS011;7090;49.436;8.490;2023-07-28T13:47:43;2.53;;;2.33;;
14030;SDS011;7090;49.436;8.490;2023-07-28T13:50:09;2.38;;;2.17;;
14030;SDS011;7090;49.436;8.490;2023-07-28T13:52:34;1.30;;;1.30;;
14030;SDS011;7090;49.436;8.490;2023-07-28T13:55:00;4.72;;;2.55;;
14030;SDS011;7090;49.436;8.490;2023-07-28T13:57:26;2.10;;;2.00;;
14030;SDS011;7090;49.436;8.490;2023-07-28T13:59:51;3.03;;;2.65;;
14030;SDS011;7090;49.436;8.490;2023-07-28T14:02:17;1.60;;;1.50;;
14030;SDS011;7090;49.436;8.490;2023-07-28T14:04:43;2.60;;;2.40;;
14030;SDS011;7090;49.436;8.490;2023-07-28T14:07:09;2.53;;;2.33;;
14030;SDS011;7090;49.436;8.490;2023-07-28T14:09:35;1.42;;;1.42;;
14030;SDS011;7090;49.436;8.490;2023-07-28T14:12:02;2.75;;;2.55;;
14030;SDS011;7090;49.436;8.490;2023-07-28T14:14:28;1.80;;;1.70;;
14030;SDS011;7090;49.436;8.490;2023-07-28T14:16:54;1.75;;;1.65;;
14030;SDS011;7090;49.436;8.490;2023-07-28T14:19:19;2.55;;;2.40;;
14030;SDS011;7090;49.436;8.490;2023-07-28T14:21:45;2.65;;;2.20;;
14030;SDS011;7090;49.436;8.490;2023-07-28T14:24:10;3.60;;;2.50;;
14030;SDS011;7090;49.436;8.490;2023-07-28T14:26:36;2.40;;;2.20;;
14030;SDS011;7090;49.436;8.490;2023-07-28T14:29:02;3.30;;;2.60;;
14030;SDS011;7090;49.436;8.490;2023-07-28T14:31:27;2.50;;;2.30;;
14030;SDS011;7090;49.436;8.490;2023-07-28T14:33:53;3.88;;;1.98;;
14030;SDS011;7090;49.436;8.490;2023-07-28T14:36:19;3.15;;;2.75;;
14030;SDS011;7090;49.436;8.490;2023-07-28T14:38:45;2.97;;;1.83;;
14030;SDS011;7090;49.436;8.490;2023-07-28T14:41:11;5.53;;;2.65;;
14030;SDS011;7090;49.436;8.490;2023-07-28T14:43:37;2.78;;;2.50;;
14030;SDS011;7090;49.436;8.490;2023-07-28T14:46:03;2.80;;;1.80;;
14030;SDS011;7090;49.436;8.490;2023-07-28T14:48:28;1.30;;;1.27;;
14030;SDS011;7090;49.436;8.490;2023-07-28T14:50:54;1.90;;;1.80;;
14030;SDS011;7090;49.436;8.490;2023-07-28T14:53:40;1.80;;;1.70;;
14030;SDS011;7090;49.436;8.490;2023-07-28T14:56:05;2.08;;;1.73;;
14030;SDS011;7090;49.436;8.490;2023-07-28T14:58:31;2.42;;;2.00;;
14030;SDS011;7090;49.436;8.490;2023-07-28T15:00:57;3.42;;;2.38;;
14030;SDS011;7090;49.436;8.490;2023-07-28T15:03:25;2.78;;;2.10;;
14030;SDS011;7090;49.436;8.490;2023-07-28T15:05:54;1.45;;;1.38;;
14030;SDS011;7090;49.436;8.490;2023-07-28T15:08:20;2.90;;;2.08;;
14030;SDS011;7090;49.436;8.490;2023-07-28T15:10:45;2.20;;;2.00;;
14030;SDS011;7090;49.436;8.490;2023-07-28T15:13:11;2.05;;;1.85;;